Nearby METAR Reports

 

KSJC - San Jose, California, USA
Distance from station: NE 14km
Updated: 25/01/2020 10:53
Mostly cloudy
Mostly cloudy
 Wind from WNW
Wind: WNW 6 km/h
Temperature: 12°C
Dew Point: 11°C
Humidity: 94%
Barometer: 1021.7 hPa
Clouds: Mostly cloudy
Visibility: 16 km
Cloud details: Mostly cloudy 1676 m
2020/01/25 08:53 KSJC 250853Z AUTO 30003KT 10SM BKN055 12/11 A3017 RMK AO2 SLP214 T01170106 50001 $
KNUQ - Moffett Nas/Mtn, California, USA
Distance from station: N 14km
Updated: 21/11/2019 18:56
NOT Current

 
Barometer: 1011.2 hPa
2019/11/21 16:56 KNUQ 211656Z AUTO A2986 RMK AO2 SLP116 PWINO $
 
KPAO - Palo Alto, California, USA
Distance from station: NNW 23km
Updated: 25/01/2020 06:47
NOT Current
Mostly cloudy
Mostly cloudy
 Wind from calm
Wind: Calm
Temperature: 12°C
Dew Point: 11°C
Humidity: 94%
Barometer: 1021.3 hPa
Clouds: Mostly cloudy
Visibility: 16 km
Cloud details: Mostly cloudy 3658 m
2020/01/25 04:47 KPAO 250447Z 00000KT 10SM BKN120 12/11 A3016 RMK LAST
KRHV - San Jose/Reid, California, USA
Distance from station: ENE 19km
Updated: 25/01/2020 07:55
NOT Current
Mostly cloudy
Mostly cloudy
 Wind from calm
Wind: Calm
Temperature: 12°C
Dew Point: 11°C
Humidity: 94%
Barometer: 1021.7 hPa
Clouds: Mostly cloudy
Visibility: 16 km
Cloud details: Partly cloudy 2438 m
Mostly cloudy 3658 m
2020/01/25 05:55 KRHV 250555Z 00000KT 10SM SCT080 BKN120 12/11 A3017 RMK LAST
 
KOAK - Oakland, California, USA
Distance from station: NNW 50km
Updated: 25/01/2020 10:53
Overcast
Overcast
 Wind from calm
Wind: Calm
Temperature: 14°C
Dew Point: 12°C
Humidity: 88%
Barometer: 1021.7 hPa
Clouds: Overcast
Visibility: 16 km
Cloud details: Few Clouds 244 m
Overcast 1219 m
2020/01/25 08:53 KOAK 250853Z 00000KT 10SM FEW008 OVC040 14/12 A3017 RMK AO2 SLP216 T01390117 50002
KSQL - San Carlos Airpo, California, USA
Distance from station: NW 34km
Updated: 25/01/2020 11:40
Overcast
Overcast
 Wind from calm
Wind: Calm
Temperature: 13°C
Dew Point: 13°C
Humidity: 100%
Barometer: 1022 hPa
Clouds: Overcast
Visibility: 16 km
Cloud details: Overcast 1463 m
2020/01/25 09:40 KSQL 250940Z AUTO 00000KT 10SM OVC048 13/13 A3018 RMK AO2
 
KSFO - San Francisco, California, USA
Distance from station: NW 49km
Updated: 25/01/2020 10:56
Overcast
Overcast
 Wind from NW
Wind: NW 11 km/h
Temperature: 13°C
Dew Point: 11°C
Humidity: 88%
Barometer: 1021.7 hPa
Clouds: Overcast
Visibility: 16 km
Cloud details: Few Clouds 305 m
Mostly cloudy 1219 m
Overcast 1524 m
2020/01/25 08:56 KSFO 250856Z 31006KT 10SM FEW010 BKN040 OVC050 13/11 A3017 RMK AO2 SLP215 T01330111 50003
KE16 - San Martin, California, USA
Distance from station: ESE 43km
Updated: 14/11/2019 11:35
NOT Current
Overcast
Overcast
 Wind from SE
Wind: SE 11 km/h
Temperature: 12°C
Dew Point: 10°C
Humidity: 88%
Barometer: 1017.6 hPa
Clouds: Overcast
Visibility: 16 km
Cloud details: Overcast 427 m
2019/11/14 09:35 KE16 140935Z AUTO 13006KT 10SM OVC014 12/10 A3005 RMK AO2
 
KWVI - Watsonville, California, USA
Distance from station: SSE 44km
Updated: 25/01/2020 10:53
Clear
Clear
 Wind from NW
Wind: NW 6 km/h
Temperature: 10°C
Dew Point: 9°C
Humidity: 94%
Barometer: 1021.7 hPa
Clouds: Clear
Visibility: 16 km
2020/01/25 08:53 KWVI 250853Z AUTO 32003KT 10SM CLR 10/09 A3017 RMK AO2 SLP215 T01000089 51002
KHAF - Half Moon Bay, California, USA
Distance from station: WNW 50km
Updated: 25/01/2020 11:40
Mist, Overcast
Mist, Overcast
 Wind from ESE
Wind: ESE 6 km/h
Temperature: 12°C
Dew Point: 11°C
Humidity: 94%
Barometer: 1022 hPa
Summary: Mist
Clouds: Overcast
Visibility: 2.8 km
Cloud details: Mostly cloudy 762 m
Overcast 1006 m
2020/01/25 09:40 KHAF 250940Z AUTO 11003KT 1 3/4SM BR BKN025 OVC033 12/11 A3018 RMK AO2
 
KHWD - Hayward, California, USA
Distance from station: N 44km
Updated: 25/01/2020 10:54
Overcast
Overcast
 Wind from calm
Wind: Calm
Temperature: 13°C
Dew Point: 11°C
Humidity: 88%
Barometer: 1021.3 hPa
Clouds: Overcast
Visibility: 16 km
Cloud details: Overcast 1524 m
2020/01/25 08:54 KHWD 250854Z AUTO 00000KT 10SM OVC050 13/11 A3016 RMK AO2 SLP223 T01280111 50001
KLVK - Livermore, California, USA
Distance from station: NNE 51km
Updated: 25/01/2020 10:53
Overcast
Overcast
 Wind from calm
Wind: Calm
Temperature: 11°C
Dew Point: 11°C
Humidity: 100%
Barometer: 1021.3 hPa
Clouds: Overcast
Visibility: 16 km
Cloud details: Overcast 1524 m
2020/01/25 08:53 KLVK 250853Z AUTO 00000KT 10SM OVC050 11/11 A3016 RMK AO2 SLP211 T01110106 51003